Time;durP1;ratioP1;P1;durP2;ratioP2;P2;SDS_P1;SDS_P2;PMS_P1;PMS_P2;Temp;Humidity;BMP_temperature;BMP_pressure;BME280_temperature;BME280_humidity;BME280_pressure;Samples;Min_cycle;Max_cycle;Signal;HPM_P1;HPM_P2
2021/04/07 00:02:16;;;;;;;11.93;2.22;;;2.00;84.80;;;;;;5071473;28;20445;-83
2021/04/07 00:04:46;;;;;;;8.13;1.88;;;1.90;85.20;;;;;;5071555;28;20016;-83
2021/04/07 00:07:12;;;;;;;17.77;2.67;;;1.90;85.50;;;;;;5071600;28;20119;-83
2021/04/07 00:09:37;;;;;;;20.33;3.15;;;1.80;86.00;;;;;;5071783;28;20496;-85
2021/04/07 00:12:03;;;;;;;16.35;2.13;;;1.80;86.10;;;;;;5071314;28;20415;-83
2021/04/07 00:14:29;;;;;;;9.45;2.13;;;1.80;86.60;;;;;;5072527;28;20448;-84
2021/04/07 00:16:54;;;;;;;19.83;2.50;;;1.70;86.70;;;;;;5071512;28;20052;-84
2021/04/07 00:19:20;;;;;;;9.60;2.08;;;1.70;87.00;;;;;;5071186;28;20453;-84
2021/04/07 00:21:46;;;;;;;14.10;2.78;;;1.70;87.00;;;;;;5071003;28;20016;-83
2021/04/07 00:24:11;;;;;;;10.27;2.30;;;1.70;87.20;;;;;;5071123;28;20039;-84
2021/04/07 00:26:37;;;;;;;11.80;2.58;;;1.70;87.00;;;;;;5071507;28;20020;-85
2021/04/07 00:29:03;;;;;;;7.68;2.10;;;1.70;87.00;;;;;;5071261;28;20400;-85
2021/04/07 00:31:29;;;;;;;10.98;2.25;;;1.70;87.00;;;;;;5071548;28;20099;-84
2021/04/07 00:33:54;;;;;;;14.48;2.10;;;1.60;87.10;;;;;;5071326;28;20044;-85
2021/04/07 00:36:20;;;;;;;7.72;1.98;;;1.60;87.20;;;;;;5071481;28;20012;-86
2021/04/07 00:38:46;;;;;;;10.88;2.00;;;1.60;87.30;;;;;;5071517;28;20083;-85
2021/04/07 00:41:12;;;;;;;9.43;2.50;;;1.50;87.30;;;;;;5071440;28;20017;-85
2021/04/07 00:43:37;;;;;;;8.40;1.85;;;1.50;87.50;;;;;;5071410;28;20372;-84
2021/04/07 00:46:03;;;;;;;14.85;1.92;;;1.50;87.50;;;;;;5071365;28;20511;-84
2021/04/07 00:48:29;;;;;;;9.05;1.95;;;1.50;87.50;;;;;;5071284;28;20029;-84
2021/04/07 00:50:55;;;;;;;8.38;1.58;;;1.50;87.60;;;;;;5071049;28;20032;-84
2021/04/07 00:53:21;;;;;;;9.60;1.55;;;1.40;87.60;;;;;;5071225;28;20357;-84
2021/04/07 00:55:46;;;;;;;13.60;2.05;;;1.40;87.80;;;;;;5070865;28;20021;-84
2021/04/07 00:58:16;;;;;;;11.88;2.50;;;1.40;87.80;;;;;;5071406;28;20020;-83
2021/04/07 01:00:42;;;;;;;14.90;2.22;;;1.40;87.90;;;;;;5056282;28;20018;-85
2021/04/07 01:03:11;;;;;;;8.88;1.60;;;1.50;88.00;;;;;;5055840;28;20055;-82
2021/04/07 01:05:36;;;;;;;8.15;1.65;;;1.50;88.10;;;;;;5055110;28;20027;-84
2021/04/07 01:08:02;;;;;;;12.27;2.17;;;1.50;88.00;;;;;;5054905;28;20045;-82
2021/04/07 01:10:28;;;;;;;8.90;1.60;;;1.50;88.10;;;;;;5055487;28;20432;-82
2021/04/07 01:12:54;;;;;;;13.23;2.17;;;1.60;88.10;;;;;;5055413;28;20484;-83
2021/04/07 01:15:21;;;;;;;17.45;2.05;;;1.60;88.00;;;;;;5056087;28;20039;-83
2021/04/07 01:17:47;;;;;;;9.20;1.73;;;1.60;88.00;;;;;;5054167;28;20016;-82
2021/04/07 01:20:15;;;;;;;13.68;2.83;;;1.70;88.20;;;;;;5054660;28;20511;-83
2021/04/07 01:22:42;;;;;;;12.80;2.13;;;1.70;88.40;;;;;;5054606;28;20096;-83
2021/04/07 01:25:09;;;;;;;18.70;2.75;;;1.70;88.60;;;;;;5054456;28;20021;-84
2021/04/07 01:27:36;;;;;;;8.48;2.35;;;1.70;88.80;;;;;;5054396;28;20032;-83
2021/04/07 01:30:06;;;;;;;10.15;2.33;;;1.70;89.20;;;;;;5054246;28;20112;-84
2021/04/07 01:32:31;;;;;;;10.43;2.03;;;1.70;89.20;;;;;;5054632;28;20017;-82
2021/04/07 01:34:57;;;;;;;14.55;2.47;;;1.70;89.50;;;;;;5054235;28;20027;-82
2021/04/07 01:37:22;;;;;;;12.30;2.00;;;1.70;89.90;;;;;;5054110;28;20376;-82
2021/04/07 01:39:48;;;;;;;14.23;1.83;;;1.70;90.10;;;;;;5053694;28;20024;-83
2021/04/07 01:42:14;;;;;;;11.85;2.33;;;1.80;90.40;;;;;;5053900;28;20063;-84
2021/04/07 01:44:41;;;;;;;14.43;2.05;;;1.70;90.70;;;;;;5055801;28;20082;-84
2021/04/07 01:47:08;;;;;;;11.85;2.55;;;1.80;90.90;;;;;;5053852;28;20017;-84
2021/04/07 01:49:34;;;;;;;16.35;2.35;;;1.80;91.00;;;;;;5053790;28;20233;-84
2021/04/07 01:52:00;;;;;;;8.75;1.85;;;1.70;91.10;;;;;;5053753;28;20055;-84
2021/04/07 01:54:26;;;;;;;9.05;2.13;;;1.80;91.20;;;;;;5053985;28;20052;-84
2021/04/07 01:56:58;;;;;;;9.80;2.00;;;1.70;91.30;;;;;;5053819;28;20044;-84
2021/04/07 01:59:25;;;;;;;8.57;2.47;;;1.80;91.40;;;;;;5053540;28;20018;-84
2021/04/07 02:01:52;;;;;;;10.95;2.20;;;1.80;91.50;;;;;;5053651;28;20048;-84
2021/04/07 02:04:19;;;;;;;14.65;3.00;;;1.90;91.50;;;;;;5055800;28;20048;-84
2021/04/07 02:06:46;;;;;;;13.57;4.13;;;1.90;91.50;;;;;;5073610;28;20039;-84
2021/04/07 02:09:13;;;;;;;11.57;3.95;;;1.90;91.50;;;;;;5073706;28;20021;-83
2021/04/07 02:11:46;;;;;;;10.32;4.10;;;1.90;91.50;;;;;;5072753;28;20016;-83
2021/04/07 02:14:13;;;;;;;11.43;3.70;;;1.90;91.50;;;;;;5073602;28;20020;-83
2021/04/07 02:16:39;;;;;;;11.20;4.22;;;1.90;91.50;;;;;;5073619;28;20032;-84
2021/04/07 02:19:10;;;;;;;13.45;3.90;;;1.90;91.40;;;;;;5073401;28;20368;-84
2021/04/07 02:21:37;;;;;;;13.93;3.80;;;1.90;91.40;;;;;;5073734;28;20032;-84
2021/04/07 02:24:03;;;;;;;10.30;3.40;;;1.90;91.50;;;;;;5073225;28;20020;-83
2021/04/07 02:26:30;;;;;;;10.90;3.47;;;1.90;91.70;;;;;;5073271;28;20334;-83
2021/04/07 02:28:55;;;;;;;9.13;3.17;;;1.90;91.70;;;;;;5073166;28;20031;-83
2021/04/07 02:31:21;;;;;;;12.45;3.00;;;1.90;91.70;;;;;;5073323;28;20017;-83
2021/04/07 02:33:47;;;;;;;9.65;3.25;;;1.90;91.70;;;;;;5073150;28;20031;-84
2021/04/07 02:36:12;;;;;;;8.98;3.08;;;1.90;91.70;;;;;;5072942;28;20111;-84
2021/04/07 02:38:38;;;;;;;11.57;3.00;;;2.00;91.70;;;;;;5073241;28;20449;-83
2021/04/07 02:41:03;;;;;;;13.43;3.10;;;1.90;91.70;;;;;;5073005;28;20321;-82
2021/04/07 02:43:29;;;;;;;8.80;2.85;;;2.00;91.80;;;;;;5073067;28;20452;-83
2021/04/07 02:45:54;;;;;;;10.20;2.63;;;2.00;91.70;;;;;;5072351;28;20105;-82
2021/04/07 02:48:20;;;;;;;8.75;3.40;;;2.00;91.70;;;;;;5072589;28;20031;-83
2021/04/07 02:50:46;;;;;;;8.50;3.15;;;2.00;91.80;;;;;;5072866;28;20023;-82
2021/04/07 02:53:11;;;;;;;9.35;3.75;;;2.00;91.80;;;;;;5072797;28;20469;-83
2021/04/07 02:55:37;;;;;;;8.40;3.38;;;2.00;92.00;;;;;;5073427;28;20448;-81
2021/04/07 02:58:02;;;;;;;10.95;5.15;;;2.00;92.00;;;;;;5077020;28;20407;-81
2021/04/07 03:00:28;;;;;;;7.03;3.50;;;2.00;92.00;;;;;;5074794;28;20027;-81
2021/04/07 03:02:54;;;;;;;11.82;3.33;;;2.00;92.00;;;;;;5074770;28;20437;-81
2021/04/07 03:05:19;;;;;;;11.70;4.68;;;2.00;92.10;;;;;;5075382;28;20032;-82
2021/04/07 03:07:45;;;;;;;7.80;3.38;;;2.00;92.10;;;;;;5076285;28;20072;-81
2021/04/07 03:10:11;;;;;;;11.63;3.30;;;2.00;92.20;;;;;;5073989;28;20058;-82
2021/04/07 03:12:39;;;;;;;9.35;2.88;;;1.90;92.20;;;;;;5072240;28;20024;-82
2021/04/07 03:15:11;;;;;;;8.40;2.80;;;1.90;92.30;;;;;;5072315;28;20059;-82
2021/04/07 03:17:37;;;;;;;9.95;3.30;;;1.80;92.40;;;;;;5072528;28;20083;-81
2021/04/07 03:20:05;;;;;;;8.57;3.28;;;1.80;92.40;;;;;;5072730;28;20040;-81
2021/04/07 03:22:31;;;;;;;12.05;3.38;;;1.80;92.60;;;;;;5071558;28;20025;-82
2021/04/07 03:24:57;;;;;;;9.02;3.90;;;1.80;92.70;;;;;;5073055;28;20013;-80
2021/04/07 03:27:23;;;;;;;11.65;3.65;;;1.70;92.80;;;;;;5071578;28;20098;-81
2021/04/07 03:29:48;;;;;;;8.50;3.30;;;1.80;92.80;;;;;;5071920;28;20032;-81
2021/04/07 03:32:14;;;;;;;13.48;4.22;;;1.70;92.90;;;;;;5071510;28;20453;-81
2021/04/07 03:34:40;;;;;;;9.45;3.83;;;1.80;93.00;;;;;;5071829;28;20027;-81
2021/04/07 03:37:05;;;;;;;9.30;3.42;;;1.80;92.90;;;;;;5071124;28;20016;-81
2021/04/07 03:39:31;;;;;;;9.77;4.10;;;1.80;92.90;;;;;;5071686;28;20013;-81
2021/04/07 03:41:56;;;;;;;9.35;3.05;;;1.90;92.90;;;;;;5071198;28;20012;-81
2021/04/07 03:44:22;;;;;;;6.88;3.33;;;1.90;92.80;;;;;;5071585;28;20457;-81
2021/04/07 03:46:51;;;;;;;14.30;4.40;;;1.90;92.80;;;;;;5071503;28;20012;-80
2021/04/07 03:49:17;;;;;;;9.37;3.63;;;1.90;93.10;;;;;;5071311;28;20024;-80
2021/04/07 03:51:43;;;;;;;9.23;4.22;;;1.90;92.80;;;;;;5071435;28;20366;-80
2021/04/07 03:54:09;;;;;;;8.55;3.17;;;1.90;92.80;;;;;;5072384;28;20458;-80
2021/04/07 03:56:34;;;;;;;9.65;3.22;;;1.90;92.80;;;;;;5072321;28;20023;-80
2021/04/07 03:59:00;;;;;;;10.32;4.47;;;1.90;92.80;;;;;;5071090;28;20028;-80
2021/04/07 04:01:25;;;;;;;11.23;3.88;;;1.90;92.80;;;;;;5071019;28;20461;-80
2021/04/07 04:03:51;;;;;;;10.48;3.58;;;1.90;92.90;;;;;;5071385;28;20013;-80
2021/04/07 04:06:16;;;;;;;10.60;3.78;;;1.90;92.90;;;;;;5070744;28;20027;-80
2021/04/07 04:08:42;;;;;;;9.52;3.05;;;1.90;93.20;;;;;;5071354;28;20453;-79
2021/04/07 04:11:08;;;;;;;11.48;3.00;;;1.80;92.90;;;;;;5071035;28;20017;-80
2021/04/07 04:13:33;;;;;;;10.50;2.65;;;1.80;93.00;;;;;;5071230;28;20063;-80
2021/04/07 04:15:59;;;;;;;9.55;2.90;;;1.80;93.30;;;;;;5072067;28;20150;-80
2021/04/07 04:18:24;;;;;;;8.90;3.72;;;1.80;93.10;;;;;;5071042;28;20387;-79
2021/04/07 04:20:50;;;;;;;10.27;3.03;;;1.80;93.00;;;;;;5072087;28;20410;-79
2021/04/07 04:23:15;;;;;;;10.77;3.90;;;1.80;93.00;;;;;;5070845;28;20594;-80
2021/04/07 04:25:41;;;;;;;6.97;2.28;;;1.80;93.00;;;;;;5072587;28;20522;-79
2021/04/07 04:28:07;;;;;;;6.35;2.28;;;1.80;93.10;;;;;;5070691;28;20024;-80
2021/04/07 04:30:32;;;;;;;9.95;2.22;;;1.70;93.20;;;;;;5070974;28;20020;-80
2021/04/07 04:32:58;;;;;;;9.02;3.00;;;1.70;93.30;;;;;;5070854;28;20016;-79
2021/04/07 04:35:26;;;;;;;9.75;3.00;;;1.70;93.20;;;;;;5070348;28;20066;-80
2021/04/07 04:37:51;;;;;;;7.03;2.55;;;1.70;93.30;;;;;;5070732;28;20012;-80
2021/04/07 04:40:17;;;;;;;5.32;2.42;;;1.70;93.40;;;;;;5070533;28;20039;-79
2021/04/07 04:42:43;;;;;;;10.75;3.08;;;1.70;93.40;;;;;;5070713;28;20062;-81
2021/04/07 04:45:10;;;;;;;8.43;2.55;;;1.70;93.40;;;;;;5070677;28;20030;-80
2021/04/07 04:47:36;;;;;;;11.77;3.22;;;1.70;93.40;;;;;;5070814;28;20044;-81
2021/04/07 04:50:07;;;;;;;8.93;2.67;;;1.80;93.50;;;;;;5070476;28;20027;-80
2021/04/07 04:52:33;;;;;;;9.88;2.90;;;1.80;93.50;;;;;;5070810;28;20338;-80
2021/04/07 04:54:58;;;;;;;5.70;2.55;;;1.70;93.50;;;;;;5070671;28;20012;-79
2021/04/07 04:57:25;;;;;;;9.45;3.15;;;1.70;93.50;;;;;;5070595;28;20433;-81
2021/04/07 04:59:51;;;;;;;11.98;4.43;;;1.70;93.50;;;;;;5070813;28;20021;-79
2021/04/07 05:02:16;;;;;;;11.05;3.42;;;1.70;93.60;;;;;;5070428;28;20032;-81
2021/04/07 05:04:42;;;;;;;11.73;3.45;;;1.70;93.50;;;;;;5052531;28;20366;-80
2021/04/07 05:07:07;;;;;;;11.43;3.60;;;1.70;94.00;;;;;;5051020;28;20040;-80
2021/04/07 05:09:33;;;;;;;5.78;2.22;;;1.60;93.80;;;;;;5052947;28;20277;-79
2021/04/07 05:11:59;;;;;;;11.30;3.53;;;1.60;93.80;;;;;;5051736;28;20041;-80
2021/04/07 05:14:25;;;;;;;8.15;3.45;;;1.60;93.80;;;;;;5051050;28;20019;-80
2021/04/07 05:16:50;;;;;;;14.35;5.32;;;1.70;93.90;;;;;;5050628;28;20009;-80
2021/04/07 05:19:16;;;;;;;10.98;3.78;;;1.70;93.90;;;;;;5050825;28;20025;-81
2021/04/07 05:21:42;;;;;;;13.55;3.10;;;1.70;93.90;;;;;;5050479;28;20478;-81
2021/04/07 05:24:08;;;;;;;5.43;2.70;;;1.70;93.90;;;;;;5051499;28;20049;-80
2021/04/07 05:26:37;;;;;;;7.90;2.10;;;1.70;93.80;;;;;;5050575;28;20017;-80
2021/04/07 05:29:07;;;;;;;10.27;3.33;;;1.80;93.70;;;;;;5050154;28;20476;-80
2021/04/07 05:31:34;;;;;;;8.98;2.80;;;1.80;93.50;;;;;;5051684;28;20017;-80
2021/04/07 05:33:59;;;;;;;9.30;3.95;;;1.80;93.30;;;;;;5050313;28;20040;-79
2021/04/07 05:36:25;;;;;;;5.25;2.53;;;1.90;93.40;;;;;;5051031;28;20057;-79
2021/04/07 05:38:51;;;;;;;6.38;2.60;;;1.90;93.40;;;;;;5050169;28;20035;-78
2021/04/07 05:41:19;;;;;;;7.63;2.78;;;1.90;93.30;;;;;;5050192;28;20449;-78
2021/04/07 05:43:45;;;;;;;5.38;2.60;;;1.90;93.20;;;;;;5051278;28;20049;-78
2021/04/07 05:46:12;;;;;;;5.60;2.95;;;1.90;93.20;;;;;;5050354;28;20021;-78
2021/04/07 05:48:37;;;;;;;6.30;2.80;;;2.00;93.30;;;;;;5053535;28;20017;-79
2021/04/07 05:51:03;;;;;;;5.00;2.20;;;2.00;93.20;;;;;;5053447;28;20021;-78
2021/04/07 05:53:29;;;;;;;6.07;2.88;;;2.00;93.30;;;;;;5053718;28;20017;-78
2021/04/07 05:55:59;;;;;;;7.85;2.72;;;2.10;93.10;;;;;;5053676;28;20032;-77
2021/04/07 05:58:26;;;;;;;5.63;2.47;;;2.10;93.10;;;;;;5053009;28;20024;-79
2021/04/07 06:00:52;;;;;;;4.85;2.50;;;2.10;93.10;;;;;;5036468;28;20660;-77
2021/04/07 06:03:19;;;;;;;7.00;2.50;;;2.10;93.00;;;;;;5054313;28;20461;-78
2021/04/07 06:05:47;;;;;;;6.05;2.40;;;2.00;92.90;;;;;;5053108;28;20461;-78
2021/04/07 06:08:14;;;;;;;4.45;2.63;;;1.90;92.90;;;;;;5056224;28;20041;-79
2021/04/07 06:10:43;;;;;;;6.50;2.78;;;1.90;93.00;;;;;;5053937;28;20021;-78
2021/04/07 06:13:09;;;;;;;5.20;3.05;;;1.90;93.10;;;;;;5054258;28;20028;-78
2021/04/07 06:15:37;;;;;;;7.22;3.42;;;1.90;93.20;;;;;;5054938;28;20029;-79
2021/04/07 06:18:05;;;;;;;10.63;3.38;;;1.90;93.30;;;;;;5053331;28;20052;-79
2021/04/07 06:20:33;;;;;;;8.35;4.43;;;1.90;93.30;;;;;;5053294;28;20020;-80
2021/04/07 06:23:00;;;;;;;10.10;4.40;;;2.00;93.40;;;;;;5054416;28;20013;-79
2021/04/07 06:25:26;;;;;;;9.15;4.50;;;2.00;93.60;;;;;;5052803;28;20171;-79
2021/04/07 06:27:55;;;;;;;10.00;4.68;;;2.10;93.90;;;;;;5052903;28;20021;-80
2021/04/07 06:30:40;;;;;;;9.07;3.78;;;2.10;93.60;;;;;;5052691;28;20013;-80
2021/04/07 06:33:09;;;;;;;9.93;4.65;;;2.20;93.60;;;;;;5052923;28;20106;-79
2021/04/07 06:35:34;;;;;;;9.57;5.00;;;2.20;93.50;;;;;;5053182;28;20016;-77
2021/04/07 06:38:00;;;;;;;7.07;4.15;;;2.30;93.60;;;;;;5053221;28;20024;-77
2021/04/07 06:40:28;;;;;;;10.27;5.35;;;2.40;93.50;;;;;;5061318;28;20020;-78
2021/04/07 06:42:54;;;;;;;8.50;4.20;;;2.40;93.60;;;;;;5072798;28;20024;-77
2021/04/07 06:45:20;;;;;;;13.40;5.38;;;2.50;93.50;;;;;;5073748;28;20026;-77
2021/04/07 06:47:49;;;;;;;11.05;5.03;;;2.60;93.50;;;;;;5072639;28;20027;-77
2021/04/07 06:50:14;;;;;;;9.02;3.78;;;2.60;93.50;;;;;;5072384;28;20017;-76
2021/04/07 06:52:43;;;;;;;8.10;3.90;;;2.60;93.50;;;;;;5073580;28;20016;-77
2021/04/07 06:55:10;;;;;;;10.80;4.10;;;2.80;93.60;;;;;;5072231;28;20066;-76
2021/04/07 06:57:36;;;;;;;8.45;3.70;;;2.80;93.50;;;;;;5073192;28;20453;-76
2021/04/07 07:00:08;;;;;;;11.45;4.00;;;2.80;93.50;;;;;;5072369;28;20024;-76
2021/04/07 07:02:34;;;;;;;9.43;3.72;;;2.90;93.40;;;;;;5072310;28;20017;-76
2021/04/07 07:05:01;;;;;;;9.52;4.35;;;3.00;93.50;;;;;;5054714;28;20066;-77
2021/04/07 07:07:26;;;;;;;9.35;3.33;;;3.20;93.70;;;;;;5051807;28;20067;-77
2021/04/07 07:09:56;;;;;;;7.43;3.10;;;3.30;93.60;;;;;;5052356;28;20028;-77
2021/04/07 07:12:22;;;;;;;9.02;3.60;;;3.60;93.60;;;;;;5053325;28;20017;-78
2021/04/07 07:14:48;;;;;;;9.88;3.55;;;3.70;93.30;;;;;;5051878;28;20190;-77
2021/04/07 07:17:24;;;;;;;6.25;2.85;;;3.90;93.10;;;;;;5051822;28;20028;-77
2021/04/07 07:19:50;;;;;;;15.50;3.60;;;4.10;93.00;;;;;;5052100;28;20082;-77
2021/04/07 07:22:24;;;;;;;10.55;3.60;;;4.20;92.60;;;;;;5053116;28;20025;-78
2021/04/07 07:24:58;;;;;;;11.43;4.18;;;4.20;92.30;;;;;;5053179;28;20468;-78
2021/04/07 07:27:43;;;;;;;11.77;3.17;;;4.20;92.30;;;;;;5052535;28;20025;-78
2021/04/07 07:30:13;;;;;;;15.05;3.25;;;4.30;92.40;;;;;;5052734;28;20063;-78
2021/04/07 07:32:41;;;;;;;9.52;3.63;;;4.30;92.30;;;;;;5051557;28;20476;-78
2021/04/07 07:35:15;;;;;;;8.25;3.13;;;4.40;92.40;;;;;;5053096;28;20044;-78
2021/04/07 07:37:43;;;;;;;7.53;2.65;;;4.40;92.40;;;;;;5052875;28;20024;-78
2021/04/07 07:40:18;;;;;;;8.70;2.95;;;4.40;92.30;;;;;;5052448;28;20350;-77
2021/04/07 07:42:45;;;;;;;14.93;3.88;;;4.40;92.40;;;;;;5051295;28;20099;-78
2021/04/07 07:45:11;;;;;;;8.85;2.70;;;4.50;92.50;;;;;;5051006;28;20064;-77
2021/04/07 07:47:41;;;;;;;13.10;3.55;;;4.60;92.50;;;;;;5051236;28;20021;-77
2021/04/07 07:50:08;;;;;;;10.30;3.22;;;4.60;92.60;;;;;;5051011;28;20025;-77
2021/04/07 07:52:41;;;;;;;10.90;3.78;;;4.60;92.50;;;;;;5052446;28;20031;-77
2021/04/07 07:55:18;;;;;;;10.63;2.47;;;4.70;92.80;;;;;;5050978;28;20024;-77
2021/04/07 07:57:55;;;;;;;15.82;3.90;;;4.70;92.80;;;;;;5050950;28;20051;-77
2021/04/07 08:00:23;;;;;;;12.05;2.00;;;4.80;92.80;;;;;;5050664;28;20544;-77
2021/04/07 08:02:48;;;;;;;13.13;2.25;;;4.90;92.50;;;;;;5050578;28;20017;-77
2021/04/07 08:05:18;;;;;;;16.58;3.67;;;5.00;92.40;;;;;;5050494;28;20024;-77
2021/04/07 08:07:44;;;;;;;22.38;3.58;;;5.10;92.40;;;;;;5051788;28;20052;-77
2021/04/07 08:10:11;;;;;;;13.80;3.70;;;5.10;92.40;;;;;;5050013;28;20025;-77
2021/04/07 08:12:38;;;;;;;19.85;2.42;;;5.10;92.30;;;;;;5052261;28;20116;-77
2021/04/07 08:15:05;;;;;;;6.85;1.38;;;5.20;92.40;;;;;;5050854;28;20025;-77
2021/04/07 08:17:32;;;;;;;18.20;3.03;;;5.30;91.70;;;;;;5051599;28;20020;-77
2021/04/07 08:20:00;;;;;;;17.65;4.85;;;5.50;91.80;;;;;;5052133;28;20028;-76
2021/04/07 08:22:28;;;;;;;10.82;2.40;;;5.70;91.30;;;;;;5050623;28;20021;-76
2021/04/07 08:24:55;;;;;;;14.23;2.45;;;5.70;90.80;;;;;;5050606;28;20043;-77
2021/04/07 08:27:21;;;;;;;17.58;2.85;;;5.80;90.60;;;;;;5051782;28;20418;-78
2021/04/07 08:29:47;;;;;;;12.48;2.40;;;5.80;90.30;;;;;;5050583;28;20048;-77
2021/04/07 08:32:17;;;;;;;13.70;2.17;;;5.80;90.20;;;;;;5050361;28;20063;-77
2021/04/07 08:34:44;;;;;;;14.15;2.60;;;5.70;89.80;;;;;;5050585;28;20104;-79
2021/04/07 08:37:09;;;;;;;11.02;2.15;;;5.50;90.30;;;;;;5050145;28;20021;-78
2021/04/07 08:39:43;;;;;;;9.25;2.20;;;5.50;89.70;;;;;;5050395;28;20021;-78
2021/04/07 08:42:13;;;;;;;10.55;1.83;;;5.40;90.10;;;;;;5051919;28;20509;-78
2021/04/07 08:44:46;;;;;;;12.50;2.53;;;5.30;90.20;;;;;;5051864;28;20021;-78
2021/04/07 08:47:30;;;;;;;10.10;2.00;;;5.40;90.20;;;;;;5050215;28;20032;-77
2021/04/07 08:50:06;;;;;;;13.43;2.30;;;5.60;90.40;;;;;;5050449;28;20021;-77
2021/04/07 08:52:44;;;;;;;26.88;5.22;;;5.90;90.60;;;;;;5051471;28;20017;-77
2021/04/07 08:55:14;;;;;;;25.92;4.60;;;6.40;91.50;;;;;;5051490;28;20067;-76
2021/04/07 08:57:40;;;;;;;25.63;5.82;;;6.80;90.40;;;;;;5050442;28;20056;-77
2021/04/07 09:00:12;;;;;;;24.67;4.18;;;7.10;89.30;;;;;;5051462;28;20352;-76
2021/04/07 09:02:49;;;;;;;20.13;4.50;;;7.20;88.20;;;;;;5050286;28;20017;-77
2021/04/07 09:05:15;;;;;;;24.35;4.30;;;7.30;88.20;;;;;;5050175;28;20103;-77
2021/04/07 09:07:43;;;;;;;23.92;4.75;;;7.30;88.10;;;;;;5050133;28;20376;-77
2021/04/07 09:10:20;;;;;;;23.45;5.22;;;7.30;88.20;;;;;;5051740;28;20024;-77
2021/04/07 09:12:47;;;;;;;23.30;4.70;;;7.30;87.40;;;;;;5051256;28;20048;-77
2021/04/07 09:15:27;;;;;;;33.33;6.90;;;7.40;86.50;;;;;;5050033;28;20442;-76
2021/04/07 09:17:57;;;;;;;27.75;4.57;;;7.60;85.00;;;;;;5051257;28;20091;-77
2021/04/07 09:20:35;;;;;;;25.85;4.72;;;7.80;83.90;;;;;;5054555;28;20017;-77
2021/04/07 09:23:08;;;;;;;21.67;4.85;;;7.90;83.80;;;;;;5055691;28;20016;-77
2021/04/07 09:25:33;;;;;;;27.13;4.15;;;7.90;82.40;;;;;;5055492;28;20017;-77
2021/04/07 09:28:07;;;;;;;22.50;4.38;;;8.10;82.70;;;;;;5055330;28;20330;-76
2021/04/07 09:30:48;;;;;;;30.95;5.07;;;8.30;80.70;;;;;;5053646;28;20111;-78
2021/04/07 09:33:16;;;;;;;13.70;3.42;;;8.50;80.60;;;;;;5053386;28;20126;-78
2021/04/07 09:35:57;;;;;;;29.73;5.03;;;9.00;78.70;;;;;;5053657;28;20070;-78
2021/04/07 09:38:22;;;;;;;23.98;4.95;;;9.40;78.20;;;;;;5053179;28;20021;-77
2021/04/07 09:40:48;;;;;;;26.33;4.85;;;9.60;76.60;;;;;;5053706;28;20511;-77
2021/04/07 09:43:21;;;;;;;20.58;4.38;;;9.80;74.20;;;;;;5054707;28;20476;-77
2021/04/07 09:45:49;;;;;;;26.13;4.32;;;9.70;73.90;;;;;;5053423;28;20021;-76
2021/04/07 09:48:15;;;;;;;19.75;3.63;;;9.50;73.50;;;;;;5053297;28;20453;-77
2021/04/07 09:50:40;;;;;;;20.05;3.20;;;9.20;73.60;;;;;;5054666;28;20032;-77
2021/04/07 09:53:06;;;;;;;28.27;4.65;;;9.00;75.20;;;;;;5054941;28;20021;-77
2021/04/07 09:55:31;;;;;;;18.05;3.65;;;8.90;76.00;;;;;;5054420;28;20073;-77
2021/04/07 09:58:04;;;;;;;20.75;4.40;;;8.70;77.30;;;;;;5053201;28;20135;-76
2021/04/07 10:00:36;;;;;;;22.65;3.70;;;8.30;77.30;;;;;;5054030;28;20029;-76
2021/04/07 10:03:02;;;;;;;19.23;3.58;;;7.90;79.90;;;;;;5057040;28;20013;-77
2021/04/07 10:05:30;;;;;;;19.73;4.30;;;7.60;80.40;;;;;;5074253;28;20016;-77
2021/04/07 10:08:16;;;;;;;14.75;3.15;;;7.40;80.20;;;;;;5072987;28;20048;-76
2021/04/07 10:10:42;;;;;;;26.05;4.32;;;7.30;81.80;;;;;;5074412;28;20025;-76
2021/04/07 10:13:08;;;;;;;25.75;4.55;;;7.30;83.50;;;;;;5074260;28;20044;-76
2021/04/07 10:15:37;;;;;;;36.03;4.32;;;7.40;82.70;;;;;;5074489;28;20024;-76
2021/04/07 10:18:11;;;;;;;30.85;4.13;;;7.50;81.50;;;;;;5074123;28;20039;-79
2021/04/07 10:20:38;;;;;;;15.68;2.83;;;7.80;84.10;;;;;;5074233;28;20021;-77
2021/04/07 10:23:16;;;;;;;24.30;4.40;;;8.30;82.30;;;;;;5072798;28;20025;-77
2021/04/07 10:25:42;;;;;;;18.92;2.88;;;8.80;79.70;;;;;;5073875;28;20017;-76
2021/04/07 10:28:18;;;;;;;29.13;5.20;;;9.30;77.70;;;;;;5073931;28;20043;-77
2021/04/07 10:30:45;;;;;;;22.15;4.60;;;9.60;75.80;;;;;;5074058;28;20485;-77
2021/04/07 10:33:11;;;;;;;97.40;15.00;;;9.70;74.60;;;;;;5072425;28;20024;-76
2021/04/07 10:35:39;;;;;;;128.32;12.65;;;9.60;73.10;;;;;;5073453;28;20023;-77
2021/04/07 10:38:10;;;;;;;36.00;5.00;;;9.30;73.40;;;;;;5072402;28;20448;-76
2021/04/07 10:40:39;;;;;;;24.08;4.18;;;9.00;71.80;;;;;;5073756;28;20017;-77
2021/04/07 10:43:16;;;;;;;24.02;3.70;;;8.90;72.70;;;;;;5072472;28;20016;-78
2021/04/07 10:46:04;;;;;;;22.13;3.40;;;8.80;73.40;;;;;;5072457;28;20017;-77
2021/04/07 10:48:30;;;;;;;28.33;6.13;;;9.10;74.80;;;;;;5073353;28;20036;-77
2021/04/07 10:50:57;;;;;;;18.38;3.42;;;9.50;72.70;;;;;;5072356;28;20120;-77
2021/04/07 10:53:33;;;;;;;22.25;3.83;;;9.40;72.00;;;;;;5073267;28;20104;-77
2021/04/07 10:55:59;;;;;;;13.70;3.75;;;9.20;73.50;;;;;;5073293;28;20021;-77
2021/04/07 10:58:29;;;;;;;27.80;3.65;;;8.80;75.40;;;;;;5071875;28;20036;-77
2021/04/07 11:00:55;;;;;;;15.00;2.33;;;8.40;77.00;;;;;;5073839;28;20028;-77
2021/04/07 11:03:31;;;;;;;18.52;4.22;;;8.00;79.20;;;;;;5071643;28;20360;-77
2021/04/07 11:05:57;;;;;;;20.00;3.38;;;7.60;77.40;;;;;;5073610;28;20460;-77
2021/04/07 11:08:34;;;;;;;19.58;3.38;;;7.40;79.70;;;;;;5071295;28;20048;-77
2021/04/07 11:11:00;;;;;;;30.38;4.78;;;7.40;79.90;;;;;;5073281;28;20068;-77
2021/04/07 11:13:26;;;;;;;25.60;5.10;;;7.40;80.80;;;;;;5071657;28;20018;-77
2021/04/07 11:15:52;;;;;;;20.08;3.75;;;7.60;80.20;;;;;;5071701;28;20482;-77
2021/04/07 11:18:28;;;;;;;17.85;3.50;;;7.90;80.70;;;;;;5071509;28;20033;-77
2021/04/07 11:20:55;;;;;;;20.52;3.63;;;8.30;81.20;;;;;;5071805;28;20016;-77
2021/04/07 11:23:21;;;;;;;22.58;4.40;;;8.50;79.30;;;;;;5071286;28;20024;-77
2021/04/07 11:25:48;;;;;;;24.58;4.13;;;8.80;79.20;;;;;;5071374;28;20012;-77
2021/04/07 11:28:20;;;;;;;43.75;6.47;;;8.80;76.70;;;;;;5072694;28;20066;-77
2021/04/07 11:31:00;;;;;;;42.22;5.28;;;8.70;74.60;;;;;;5073057;28;20017;-77
2021/04/07 11:33:50;;;;;;;33.25;6.07;;;8.30;74.30;;;;;;5071520;28;20021;-77
2021/04/07 11:36:26;;;;;;;21.80;4.55;;;7.90;76.70;;;;;;5072222;28;20029;-77
2021/04/07 11:38:56;;;;;;;;;;;7.60;79.30;;;;;;5073439;28;20453;-77
2021/04/07 11:44:29;;;;;;;14.65;3.30;;;7.30;78.50;;;;;;5090225;28;20039;-77
2021/04/07 11:46:55;;;;;;;16.38;2.60;;;7.50;80.00;;;;;;5074440;28;20040;-77
2021/04/07 11:49:21;;;;;;;21.98;4.05;;;7.60;80.60;;;;;;5071285;28;20427;-76
2021/04/07 11:51:47;;;;;;;21.17;3.40;;;7.80;76.00;;;;;;5071492;28;20012;-77
2021/04/07 11:54:13;;;;;;;18.70;3.30;;;7.90;77.10;;;;;;5071198;28;20021;-78
2021/04/07 11:56:44;;;;;;;17.52;2.80;;;8.10;76.80;;;;;;5071308;28;20107;-77
2021/04/07 11:59:11;;;;;;;19.45;3.28;;;8.40;75.20;;;;;;5071362;28;20032;-77
2021/04/07 12:01:37;;;;;;;17.67;3.70;;;8.50;73.50;;;;;;5072596;28;20027;-77
2021/04/07 12:04:03;;;;;;;20.92;4.32;;;8.50;73.30;;;;;;5072384;28;20020;-76
2021/04/07 12:06:29;;;;;;;21.42;4.72;;;8.50;74.10;;;;;;5070791;28;20048;-76
2021/04/07 12:08:54;;;;;;;21.15;5.00;;;8.50;74.90;;;;;;5071489;28;20486;-77
2021/04/07 12:11:20;;;;;;;12.48;2.58;;;8.40;72.70;;;;;;5071884;28;20019;-77
2021/04/07 12:13:46;;;;;;;19.00;5.38;;;8.10;74.00;;;;;;5071015;28;20511;-77
2021/04/07 12:16:11;;;;;;;18.92;2.58;;;7.70;73.20;;;;;;5073123;28;20120;-76
2021/04/07 12:18:37;;;;;;;18.15;2.90;;;7.60;75.80;;;;;;5074330;28;20029;-76
2021/04/07 12:21:02;;;;;;;18.85;5.35;;;7.60;73.20;;;;;;5072454;28;20357;-77
2021/04/07 12:23:28;;;;;;;15.27;4.18;;;7.40;75.10;;;;;;5071649;28;20472;-77
2021/04/07 12:25:54;;;;;;;14.93;3.25;;;7.40;73.80;;;;;;5070935;28;20055;-76
2021/04/07 12:28:21;;;;;;;17.90;5.57;;;7.40;74.60;;;;;;5070691;28;20115;-77
2021/04/07 12:30:50;;;;;;;14.95;2.50;;;7.60;76.20;;;;;;5071070;28;20017;-77
2021/04/07 12:33:22;;;;;;;16.15;3.55;;;7.60;72.00;;;;;;5070569;28;20530;-77
2021/04/07 12:35:49;;;;;;;11.32;2.53;;;7.50;71.40;;;;;;5070731;28;20013;-78
2021/04/07 12:38:16;;;;;;;14.18;3.08;;;7.40;73.40;;;;;;5070455;28;20028;-78
2021/04/07 12:40:44;;;;;;;9.93;2.50;;;7.40;72.50;;;;;;5070955;28;20021;-78
2021/04/07 12:43:10;;;;;;;13.43;2.92;;;7.40;72.40;;;;;;5070677;28;20016;-77
2021/04/07 12:45:35;;;;;;;7.68;2.17;;;7.40;71.50;;;;;;5070500;28;20024;-77
2021/04/07 12:48:01;;;;;;;12.07;2.00;;;7.50;73.60;;;;;;5070678;28;20031;-76
2021/04/07 12:50:28;;;;;;;10.38;2.65;;;7.60;73.20;;;;;;5070692;28;20245;-77
2021/04/07 12:52:53;;;;;;;13.85;2.00;;;7.80;70.50;;;;;;5070428;28;20021;-76
2021/04/07 12:55:19;;;;;;;11.73;1.90;;;8.00;71.30;;;;;;5071054;28;20012;-76
2021/04/07 12:57:45;;;;;;;13.65;3.15;;;8.30;69.90;;;;;;5075686;28;20086;-76